sensor_id;sensor_type;location;lat;lon;timestamp;P1;durP1;ratioP1;P2;durP2;ratioP2
51006;SDS011;37034;47.886;-3.904;2022-10-16T00:01:25;9.93;;;1.45;;
51006;SDS011;37034;47.886;-3.904;2022-10-16T00:03:52;11.35;;;1.40;;
51006;SDS011;37034;47.886;-3.904;2022-10-16T00:06:18;11.77;;;1.73;;
51006;SDS011;37034;47.886;-3.904;2022-10-16T00:08:45;12.88;;;1.90;;
51006;SDS011;37034;47.886;-3.904;2022-10-16T00:11:16;14.88;;;2.03;;
51006;SDS011;37034;47.886;-3.904;2022-10-16T00:13:47;17.90;;;1.80;;
51006;SDS011;37034;47.886;-3.904;2022-10-16T00:16:14;16.40;;;1.83;;
51006;SDS011;37034;47.886;-3.904;2022-10-16T00:18:41;15.88;;;1.42;;
51006;SDS011;37034;47.886;-3.904;2022-10-16T00:21:08;10.68;;;1.45;;
51006;SDS011;37034;47.886;-3.904;2022-10-16T00:23:35;11.50;;;1.58;;
51006;SDS011;37034;47.886;-3.904;2022-10-16T00:26:02;12.82;;;1.40;;
51006;SDS011;37034;47.886;-3.904;2022-10-16T00:28:30;7.80;;;1.42;;
51006;SDS011;37034;47.886;-3.904;2022-10-16T00:30:56;10.40;;;1.60;;
51006;SDS011;37034;47.886;-3.904;2022-10-16T00:33:23;10.20;;;1.17;;
51006;SDS011;37034;47.886;-3.904;2022-10-16T00:35:48;7.97;;;1.30;;
51006;SDS011;37034;47.886;-3.904;2022-10-16T00:38:15;11.23;;;1.48;;
51006;SDS011;37034;47.886;-3.904;2022-10-16T00:40:41;8.75;;;1.52;;
51006;SDS011;37034;47.886;-3.904;2022-10-16T00:46:27;11.20;;;1.40;;
51006;SDS011;37034;47.886;-3.904;2022-10-16T00:54:07;12.00;;;1.45;;
51006;SDS011;37034;47.886;-3.904;2022-10-16T00:56:54;13.82;;;2.13;;
51006;SDS011;37034;47.886;-3.904;2022-10-16T00:59:28;12.43;;;1.10;;
51006;SDS011;37034;47.886;-3.904;2022-10-16T01:01:56;10.10;;;1.75;;
51006;SDS011;37034;47.886;-3.904;2022-10-16T01:04:23;9.98;;;1.38;;
51006;SDS011;37034;47.886;-3.904;2022-10-16T01:07:06;12.10;;;1.60;;
51006;SDS011;37034;47.886;-3.904;2022-10-16T01:09:47;8.93;;;1.60;;
51006;SDS011;37034;47.886;-3.904;2022-10-16T01:13:21;14.38;;;1.73;;
51006;SDS011;37034;47.886;-3.904;2022-10-16T01:15:32;5.32;;;1.15;;
51006;SDS011;37034;47.886;-3.904;2022-10-16T01:18:11;13.25;;;1.75;;
51006;SDS011;37034;47.886;-3.904;2022-10-16T01:20:47;10.88;;;1.60;;
51006;SDS011;37034;47.886;-3.904;2022-10-16T01:26:06;11.00;;;2.03;;
51006;SDS011;37034;47.886;-3.904;2022-10-16T01:28:49;15.90;;;1.63;;
51006;SDS011;37034;47.886;-3.904;2022-10-16T01:31:27;12.80;;;1.83;;
51006;SDS011;37034;47.886;-3.904;2022-10-16T01:34:07;9.10;;;1.25;;
51006;SDS011;37034;47.886;-3.904;2022-10-16T01:36:41;8.68;;;1.48;;
51006;SDS011;37034;47.886;-3.904;2022-10-16T01:39:12;9.48;;;1.40;;
51006;SDS011;37034;47.886;-3.904;2022-10-16T01:41:43;9.38;;;1.45;;
51006;SDS011;37034;47.886;-3.904;2022-10-16T01:44:14;18.38;;;1.88;;
51006;SDS011;37034;47.886;-3.904;2022-10-16T01:46:42;16.88;;;1.80;;
51006;SDS011;37034;47.886;-3.904;2022-10-16T01:49:11;8.07;;;1.10;;
51006;SDS011;37034;47.886;-3.904;2022-10-16T01:54:03;10.40;;;1.50;;
51006;SDS011;37034;47.886;-3.904;2022-10-16T01:56:31;11.85;;;1.75;;
51006;SDS011;37034;47.886;-3.904;2022-10-16T01:59:06;10.52;;;1.42;;
51006;SDS011;37034;47.886;-3.904;2022-10-16T02:01:36;12.93;;;1.45;;
51006;SDS011;37034;47.886;-3.904;2022-10-16T02:04:13;11.38;;;1.23;;
51006;SDS011;37034;47.886;-3.904;2022-10-16T02:06:48;12.05;;;1.25;;
51006;SDS011;37034;47.886;-3.904;2022-10-16T02:09:14;11.80;;;1.33;;
51006;SDS011;37034;47.886;-3.904;2022-10-16T02:11:42;11.45;;;1.40;;
51006;SDS011;37034;47.886;-3.904;2022-10-16T02:14:08;8.82;;;1.52;;
51006;SDS011;37034;47.886;-3.904;2022-10-16T02:16:39;15.37;;;2.07;;
51006;SDS011;37034;47.886;-3.904;2022-10-16T02:19:09;9.18;;;1.33;;
51006;SDS011;37034;47.886;-3.904;2022-10-16T02:21:43;11.27;;;1.42;;
51006;SDS011;37034;47.886;-3.904;2022-10-16T02:27:29;17.92;;;1.77;;
51006;SDS011;37034;47.886;-3.904;2022-10-16T02:30:07;11.68;;;1.40;;
51006;SDS011;37034;47.886;-3.904;2022-10-16T02:32:44;13.75;;;2.40;;
51006;SDS011;37034;47.886;-3.904;2022-10-16T02:35:12;13.55;;;1.40;;
51006;SDS011;37034;47.886;-3.904;2022-10-16T02:37:39;12.25;;;1.75;;
51006;SDS011;37034;47.886;-3.904;2022-10-16T02:42:33;12.40;;;1.85;;
51006;SDS011;37034;47.886;-3.904;2022-10-16T02:45:00;9.10;;;1.15;;
51006;SDS011;37034;47.886;-3.904;2022-10-16T02:47:26;10.25;;;1.92;;
51006;SDS011;37034;47.886;-3.904;2022-10-16T02:49:52;9.63;;;1.47;;
51006;SDS011;37034;47.886;-3.904;2022-10-16T02:52:17;13.47;;;1.90;;
51006;SDS011;37034;47.886;-3.904;2022-10-16T02:54:43;9.77;;;1.33;;
51006;SDS011;37034;47.886;-3.904;2022-10-16T02:57:09;9.73;;;1.80;;
51006;SDS011;37034;47.886;-3.904;2022-10-16T02:59:34;9.97;;;1.13;;
51006;SDS011;37034;47.886;-3.904;2022-10-16T03:02:00;8.00;;;1.37;;
51006;SDS011;37034;47.886;-3.904;2022-10-16T03:04:25;10.20;;;1.20;;
51006;SDS011;37034;47.886;-3.904;2022-10-16T03:06:51;11.43;;;1.30;;
51006;SDS011;37034;47.886;-3.904;2022-10-16T03:09:17;10.37;;;1.20;;
51006;SDS011;37034;47.886;-3.904;2022-10-16T03:11:42;10.57;;;1.40;;
51006;SDS011;37034;47.886;-3.904;2022-10-16T03:14:08;12.60;;;1.47;;
51006;SDS011;37034;47.886;-3.904;2022-10-16T03:16:33;8.60;;;1.40;;
51006;SDS011;37034;47.886;-3.904;2022-10-16T03:18:59;9.37;;;1.20;;
51006;SDS011;37034;47.886;-3.904;2022-10-16T03:21:25;8.77;;;1.65;;
51006;SDS011;37034;47.886;-3.904;2022-10-16T03:23:50;11.23;;;1.30;;
51006;SDS011;37034;47.886;-3.904;2022-10-16T03:26:16;5.83;;;1.17;;
51006;SDS011;37034;47.886;-3.904;2022-10-16T03:28:42;9.95;;;1.50;;
51006;SDS011;37034;47.886;-3.904;2022-10-16T03:31:07;8.90;;;1.30;;
51006;SDS011;37034;47.886;-3.904;2022-10-16T03:33:33;11.00;;;1.87;;
51006;SDS011;37034;47.886;-3.904;2022-10-16T03:35:59;13.88;;;1.30;;
51006;SDS011;37034;47.886;-3.904;2022-10-16T03:38:25;10.68;;;1.42;;
51006;SDS011;37034;47.886;-3.904;2022-10-16T03:40:51;8.80;;;1.45;;
51006;SDS011;37034;47.886;-3.904;2022-10-16T03:43:16;10.37;;;1.37;;
51006;SDS011;37034;47.886;-3.904;2022-10-16T03:45:42;5.67;;;1.20;;
51006;SDS011;37034;47.886;-3.904;2022-10-16T03:48:08;8.65;;;1.77;;
51006;SDS011;37034;47.886;-3.904;2022-10-16T03:50:33;14.53;;;2.73;;
51006;SDS011;37034;47.886;-3.904;2022-10-16T03:52:59;16.30;;;1.70;;
51006;SDS011;37034;47.886;-3.904;2022-10-16T03:55:25;9.93;;;1.83;;
51006;SDS011;37034;47.886;-3.904;2022-10-16T03:57:50;8.93;;;1.77;;
51006;SDS011;37034;47.886;-3.904;2022-10-16T04:00:16;8.73;;;1.60;;
51006;SDS011;37034;47.886;-3.904;2022-10-16T04:02:42;11.73;;;1.48;;
51006;SDS011;37034;47.886;-3.904;2022-10-16T04:05:07;11.47;;;1.40;;
51006;SDS011;37034;47.886;-3.904;2022-10-16T04:07:33;7.47;;;1.08;;
51006;SDS011;37034;47.886;-3.904;2022-10-16T04:09:59;10.73;;;1.40;;
51006;SDS011;37034;47.886;-3.904;2022-10-16T04:12:25;7.70;;;1.47;;
51006;SDS011;37034;47.886;-3.904;2022-10-16T04:14:51;12.30;;;1.92;;
51006;SDS011;37034;47.886;-3.904;2022-10-16T04:17:17;8.10;;;2.27;;
51006;SDS011;37034;47.886;-3.904;2022-10-16T04:19:43;14.17;;;1.77;;
51006;SDS011;37034;47.886;-3.904;2022-10-16T04:22:08;12.20;;;2.60;;
51006;SDS011;37034;47.886;-3.904;2022-10-16T04:24:34;10.70;;;1.93;;
51006;SDS011;37034;47.886;-3.904;2022-10-16T04:27:00;13.10;;;2.53;;
51006;SDS011;37034;47.886;-3.904;2022-10-16T04:29:26;12.23;;;1.83;;
51006;SDS011;37034;47.886;-3.904;2022-10-16T04:31:51;11.67;;;1.83;;
51006;SDS011;37034;47.886;-3.904;2022-10-16T04:34:17;10.68;;;1.70;;
51006;SDS011;37034;47.886;-3.904;2022-10-16T04:36:43;8.52;;;1.45;;
51006;SDS011;37034;47.886;-3.904;2022-10-16T04:39:09;10.07;;;1.90;;
51006;SDS011;37034;47.886;-3.904;2022-10-16T04:41:34;11.87;;;1.57;;
51006;SDS011;37034;47.886;-3.904;2022-10-16T04:44:00;13.87;;;1.73;;
51006;SDS011;37034;47.886;-3.904;2022-10-16T04:46:26;18.07;;;2.10;;
51006;SDS011;37034;47.886;-3.904;2022-10-16T04:48:51;13.50;;;1.80;;
51006;SDS011;37034;47.886;-3.904;2022-10-16T04:51:17;9.93;;;1.40;;
51006;SDS011;37034;47.886;-3.904;2022-10-16T04:53:43;12.77;;;1.30;;
51006;SDS011;37034;47.886;-3.904;2022-10-16T04:56:09;9.43;;;1.63;;
51006;SDS011;37034;47.886;-3.904;2022-10-16T04:58:35;11.73;;;1.20;;
51006;SDS011;37034;47.886;-3.904;2022-10-16T05:01:00;10.80;;;1.83;;
51006;SDS011;37034;47.886;-3.904;2022-10-16T05:03:26;8.10;;;1.20;;
51006;SDS011;37034;47.886;-3.904;2022-10-16T05:05:51;10.90;;;1.53;;
51006;SDS011;37034;47.886;-3.904;2022-10-16T05:08:18;8.55;;;1.20;;
51006;SDS011;37034;47.886;-3.904;2022-10-16T05:10:43;8.77;;;1.38;;
51006;SDS011;37034;47.886;-3.904;2022-10-16T05:13:10;7.43;;;1.25;;
51006;SDS011;37034;47.886;-3.904;2022-10-16T05:18:02;10.52;;;1.08;;
51006;SDS011;37034;47.886;-3.904;2022-10-16T05:20:28;6.93;;;1.38;;
51006;SDS011;37034;47.886;-3.904;2022-10-16T05:22:53;4.18;;;0.85;;
51006;SDS011;37034;47.886;-3.904;2022-10-16T05:25:19;7.90;;;1.07;;
51006;SDS011;37034;47.886;-3.904;2022-10-16T05:27:48;7.50;;;1.10;;
51006;SDS011;37034;47.886;-3.904;2022-10-16T05:30:14;7.90;;;1.20;;
51006;SDS011;37034;47.886;-3.904;2022-10-16T05:32:40;5.20;;;1.10;;
51006;SDS011;37034;47.886;-3.904;2022-10-16T05:35:06;8.63;;;1.17;;
51006;SDS011;37034;47.886;-3.904;2022-10-16T05:37:32;6.90;;;1.20;;
51006;SDS011;37034;47.886;-3.904;2022-10-16T05:39:58;11.23;;;1.37;;
51006;SDS011;37034;47.886;-3.904;2022-10-16T05:42:23;4.43;;;1.10;;
51006;SDS011;37034;47.886;-3.904;2022-10-16T05:44:49;3.93;;;0.73;;
51006;SDS011;37034;47.886;-3.904;2022-10-16T05:47:14;5.03;;;0.97;;
51006;SDS011;37034;47.886;-3.904;2022-10-16T05:49:40;8.73;;;1.50;;
51006;SDS011;37034;47.886;-3.904;2022-10-16T05:52:06;10.53;;;0.83;;
51006;SDS011;37034;47.886;-3.904;2022-10-16T05:54:31;8.13;;;1.30;;
51006;SDS011;37034;47.886;-3.904;2022-10-16T05:56:57;9.40;;;1.53;;
51006;SDS011;37034;47.886;-3.904;2022-10-16T05:59:23;8.37;;;1.37;;
51006;SDS011;37034;47.886;-3.904;2022-10-16T06:01:48;13.30;;;1.43;;
51006;SDS011;37034;47.886;-3.904;2022-10-16T06:04:14;6.43;;;1.33;;
51006;SDS011;37034;47.886;-3.904;2022-10-16T06:06:40;10.07;;;1.63;;
51006;SDS011;37034;47.886;-3.904;2022-10-16T06:09:05;7.63;;;1.13;;
51006;SDS011;37034;47.886;-3.904;2022-10-16T06:11:31;9.10;;;1.27;;
51006;SDS011;37034;47.886;-3.904;2022-10-16T06:13:59;10.70;;;1.42;;
51006;SDS011;37034;47.886;-3.904;2022-10-16T06:16:32;6.82;;;0.93;;
51006;SDS011;37034;47.886;-3.904;2022-10-16T06:18:59;7.88;;;1.27;;
51006;SDS011;37034;47.886;-3.904;2022-10-16T06:21:26;8.60;;;0.95;;
51006;SDS011;37034;47.886;-3.904;2022-10-16T06:23:53;8.82;;;1.25;;
51006;SDS011;37034;47.886;-3.904;2022-10-16T06:26:21;7.18;;;1.08;;
51006;SDS011;37034;47.886;-3.904;2022-10-16T06:28:48;9.95;;;1.00;;
51006;SDS011;37034;47.886;-3.904;2022-10-16T06:31:15;11.57;;;1.52;;
51006;SDS011;37034;47.886;-3.904;2022-10-16T06:36:12;9.10;;;1.05;;
51006;SDS011;37034;47.886;-3.904;2022-10-16T06:38:39;14.05;;;1.63;;
51006;SDS011;37034;47.886;-3.904;2022-10-16T06:41:06;13.18;;;1.23;;
51006;SDS011;37034;47.886;-3.904;2022-10-16T06:43:33;11.20;;;1.90;;
51006;SDS011;37034;47.886;-3.904;2022-10-16T06:46:02;9.63;;;1.80;;
51006;SDS011;37034;47.886;-3.904;2022-10-16T06:48:29;12.48;;;1.42;;
51006;SDS011;37034;47.886;-3.904;2022-10-16T06:50:56;9.75;;;1.63;;
51006;SDS011;37034;47.886;-3.904;2022-10-16T06:53:23;6.05;;;1.00;;
51006;SDS011;37034;47.886;-3.904;2022-10-16T06:55:49;6.00;;;1.08;;
51006;SDS011;37034;47.886;-3.904;2022-10-16T06:58:14;6.35;;;1.25;;
51006;SDS011;37034;47.886;-3.904;2022-10-16T07:00:40;7.10;;;1.23;;
51006;SDS011;37034;47.886;-3.904;2022-10-16T07:03:06;9.73;;;1.70;;
51006;SDS011;37034;47.886;-3.904;2022-10-16T07:05:31;7.30;;;1.10;;
51006;SDS011;37034;47.886;-3.904;2022-10-16T07:08:01;13.43;;;1.77;;
51006;SDS011;37034;47.886;-3.904;2022-10-16T07:10:30;7.95;;;1.20;;
51006;SDS011;37034;47.886;-3.904;2022-10-16T07:12:56;9.88;;;1.27;;
51006;SDS011;37034;47.886;-3.904;2022-10-16T07:15:21;5.88;;;1.73;;
51006;SDS011;37034;47.886;-3.904;2022-10-16T07:17:47;7.80;;;1.52;;
51006;SDS011;37034;47.886;-3.904;2022-10-16T07:22:39;5.90;;;1.25;;
51006;SDS011;37034;47.886;-3.904;2022-10-16T07:25:05;9.77;;;1.90;;
51006;SDS011;37034;47.886;-3.904;2022-10-16T07:27:31;12.98;;;2.05;;
51006;SDS011;37034;47.886;-3.904;2022-10-16T07:29:57;7.30;;;1.63;;
51006;SDS011;37034;47.886;-3.904;2022-10-16T07:32:22;8.47;;;1.37;;
51006;SDS011;37034;47.886;-3.904;2022-10-16T07:34:50;9.23;;;1.50;;
51006;SDS011;37034;47.886;-3.904;2022-10-16T07:37:16;5.95;;;1.48;;
51006;SDS011;37034;47.886;-3.904;2022-10-16T07:39:42;9.50;;;1.58;;
51006;SDS011;37034;47.886;-3.904;2022-10-16T07:42:08;6.70;;;1.87;;
51006;SDS011;37034;47.886;-3.904;2022-10-16T07:44:34;8.40;;;1.55;;
51006;SDS011;37034;47.886;-3.904;2022-10-16T07:46:59;13.10;;;2.20;;
51006;SDS011;37034;47.886;-3.904;2022-10-16T07:49:25;10.37;;;1.77;;
51006;SDS011;37034;47.886;-3.904;2022-10-16T07:51:51;9.23;;;1.53;;
51006;SDS011;37034;47.886;-3.904;2022-10-16T07:54:16;6.13;;;1.70;;
51006;SDS011;37034;47.886;-3.904;2022-10-16T07:56:42;11.38;;;2.35;;
51006;SDS011;37034;47.886;-3.904;2022-10-16T07:59:08;8.73;;;1.88;;
51006;SDS011;37034;47.886;-3.904;2022-10-16T08:01:33;12.87;;;2.40;;
51006;SDS011;37034;47.886;-3.904;2022-10-16T08:03:59;6.87;;;1.33;;
51006;SDS011;37034;47.886;-3.904;2022-10-16T08:06:25;11.17;;;2.30;;
51006;SDS011;37034;47.886;-3.904;2022-10-16T08:08:50;8.95;;;2.15;;
51006;SDS011;37034;47.886;-3.904;2022-10-16T08:11:16;15.55;;;2.20;;
51006;SDS011;37034;47.886;-3.904;2022-10-16T08:13:42;12.93;;;2.10;;
51006;SDS011;37034;47.886;-3.904;2022-10-16T08:16:08;10.55;;;1.75;;
51006;SDS011;37034;47.886;-3.904;2022-10-16T08:18:35;9.65;;;2.00;;
51006;SDS011;37034;47.886;-3.904;2022-10-16T08:21:02;9.27;;;1.50;;
51006;SDS011;37034;47.886;-3.904;2022-10-16T08:23:29;13.63;;;1.75;;
51006;SDS011;37034;47.886;-3.904;2022-10-16T08:25:55;12.27;;;1.70;;
51006;SDS011;37034;47.886;-3.904;2022-10-16T08:30:48;9.82;;;1.77;;
51006;SDS011;37034;47.886;-3.904;2022-10-16T08:33:13;15.02;;;1.88;;
51006;SDS011;37034;47.886;-3.904;2022-10-16T08:35:39;10.35;;;1.50;;
51006;SDS011;37034;47.886;-3.904;2022-10-16T08:38:05;13.47;;;1.60;;
51006;SDS011;37034;47.886;-3.904;2022-10-16T08:50:43;8.60;;;1.48;;
51006;SDS011;37034;47.886;-3.904;2022-10-16T08:54:11;14.10;;;1.90;;
51006;SDS011;37034;47.886;-3.904;2022-10-16T08:56:11;13.20;;;2.17;;
51006;SDS011;37034;47.886;-3.904;2022-10-16T08:58:37;18.73;;;2.67;;
51006;SDS011;37034;47.886;-3.904;2022-10-16T09:01:03;14.10;;;2.23;;
51006;SDS011;37034;47.886;-3.904;2022-10-16T09:06:46;17.20;;;1.80;;
51006;SDS011;37034;47.886;-3.904;2022-10-16T09:09:34;14.82;;;2.05;;
51006;SDS011;37034;47.886;-3.904;2022-10-16T09:12:08;17.50;;;1.80;;
51006;SDS011;37034;47.886;-3.904;2022-10-16T09:17:20;14.40;;;2.63;;
51006;SDS011;37034;47.886;-3.904;2022-10-16T09:19:56;12.52;;;1.52;;
51006;SDS011;37034;47.886;-3.904;2022-10-16T09:22:44;17.17;;;2.78;;
51006;SDS011;37034;47.886;-3.904;2022-10-16T09:25:11;16.70;;;2.42;;
51006;SDS011;37034;47.886;-3.904;2022-10-16T09:27:39;13.35;;;2.53;;
51006;SDS011;37034;47.886;-3.904;2022-10-16T09:30:12;11.05;;;1.20;;
51006;SDS011;37034;47.886;-3.904;2022-10-16T09:32:43;17.75;;;2.38;;
51006;SDS011;37034;47.886;-3.904;2022-10-16T09:35:14;15.80;;;1.92;;
51006;SDS011;37034;47.886;-3.904;2022-10-16T09:38:01;11.45;;;1.63;;
51006;SDS011;37034;47.886;-3.904;2022-10-16T09:40:31;10.47;;;1.47;;
51006;SDS011;37034;47.886;-3.904;2022-10-16T09:45:59;17.92;;;2.45;;
51006;SDS011;37034;47.886;-3.904;2022-10-16T09:48:31;14.52;;;1.55;;
51006;SDS011;37034;47.886;-3.904;2022-10-16T09:51:02;8.93;;;1.38;;
51006;SDS011;37034;47.886;-3.904;2022-10-16T09:53:39;14.32;;;1.30;;
51006;SDS011;37034;47.886;-3.904;2022-10-16T09:56:09;10.40;;;1.15;;
51006;SDS011;37034;47.886;-3.904;2022-10-16T09:58:41;16.73;;;1.83;;
51006;SDS011;37034;47.886;-3.904;2022-10-16T10:01:11;15.27;;;1.42;;
51006;SDS011;37034;47.886;-3.904;2022-10-16T10:03:40;10.20;;;1.13;;
51006;SDS011;37034;47.886;-3.904;2022-10-16T10:06:24;12.88;;;1.40;;
51006;SDS011;37034;47.886;-3.904;2022-10-16T10:09:37;14.45;;;1.30;;
51006;SDS011;37034;47.886;-3.904;2022-10-16T10:11:47;14.60;;;1.30;;
51006;SDS011;37034;47.886;-3.904;2022-10-16T10:14:19;11.40;;;1.80;;
51006;SDS011;37034;47.886;-3.904;2022-10-16T10:19:30;14.83;;;1.37;;
51006;SDS011;37034;47.886;-3.904;2022-10-16T10:25:08;11.30;;;1.10;;
51006;SDS011;37034;47.886;-3.904;2022-10-16T10:35:50;8.20;;;1.42;;
51006;SDS011;37034;47.886;-3.904;2022-10-16T10:38:31;10.38;;;0.85;;
51006;SDS011;37034;47.886;-3.904;2022-10-16T10:49:38;8.60;;;1.17;;
51006;SDS011;37034;47.886;-3.904;2022-10-16T10:58:10;25.70;;;2.03;;
51006;SDS011;37034;47.886;-3.904;2022-10-16T11:06:16;13.27;;;1.40;;
51006;SDS011;37034;47.886;-3.904;2022-10-16T11:08:53;13.85;;;1.70;;
51006;SDS011;37034;47.886;-3.904;2022-10-16T11:14:20;17.33;;;2.20;;
51006;SDS011;37034;47.886;-3.904;2022-10-16T11:22:50;20.95;;;2.63;;
51006;SDS011;37034;47.886;-3.904;2022-10-16T11:25:00;21.77;;;2.92;;
51006;SDS011;37034;47.886;-3.904;2022-10-16T11:28:16;16.35;;;2.38;;
51006;SDS011;37034;47.886;-3.904;2022-10-16T11:33:32;16.55;;;2.03;;
51006;SDS011;37034;47.886;-3.904;2022-10-16T11:36:15;21.40;;;2.63;;
51006;SDS011;37034;47.886;-3.904;2022-10-16T11:41:33;22.95;;;2.65;;
51006;SDS011;37034;47.886;-3.904;2022-10-16T11:49:40;21.92;;;2.67;;
51006;SDS011;37034;47.886;-3.904;2022-10-16T11:55:04;20.90;;;2.17;;
51006;SDS011;37034;47.886;-3.904;2022-10-16T11:57:39;20.20;;;2.53;;
51006;SDS011;37034;47.886;-3.904;2022-10-16T12:02:56;18.85;;;1.92;;
51006;SDS011;37034;47.886;-3.904;2022-10-16T12:08:29;24.77;;;2.17;;
51006;SDS011;37034;47.886;-3.904;2022-10-16T12:11:59;23.20;;;2.30;;
51006;SDS011;37034;47.886;-3.904;2022-10-16T12:14:17;21.80;;;1.95;;
51006;SDS011;37034;47.886;-3.904;2022-10-16T12:16:53;19.45;;;2.15;;
51006;SDS011;37034;47.886;-3.904;2022-10-16T12:19:25;24.23;;;2.47;;
51006;SDS011;37034;47.886;-3.904;2022-10-16T12:21:56;20.05;;;3.13;;
51006;SDS011;37034;47.886;-3.904;2022-10-16T12:27:03;16.95;;;2.95;;
51006;SDS011;37034;47.886;-3.904;2022-10-16T12:29:38;23.10;;;2.70;;
51006;SDS011;37034;47.886;-3.904;2022-10-16T12:34:52;26.73;;;3.15;;
51006;SDS011;37034;47.886;-3.904;2022-10-16T12:37:22;22.88;;;4.63;;
51006;SDS011;37034;47.886;-3.904;2022-10-16T12:39:51;28.08;;;2.88;;
51006;SDS011;37034;47.886;-3.904;2022-10-16T12:42:19;33.85;;;3.55;;
51006;SDS011;37034;47.886;-3.904;2022-10-16T12:44:45;28.42;;;3.28;;
51006;SDS011;37034;47.886;-3.904;2022-10-16T12:47:19;20.42;;;2.53;;
51006;SDS011;37034;47.886;-3.904;2022-10-16T12:49:50;16.13;;;3.30;;
51006;SDS011;37034;47.886;-3.904;2022-10-16T12:54:59;21.95;;;2.95;;
51006;SDS011;37034;47.886;-3.904;2022-10-16T13:02:54;26.42;;;3.20;;
51006;SDS011;37034;47.886;-3.904;2022-10-16T13:22:45;24.23;;;2.87;;
51006;SDS011;37034;47.886;-3.904;2022-10-16T13:28:05;12.10;;;2.10;;
51006;SDS011;37034;47.886;-3.904;2022-10-16T13:30:42;15.23;;;1.95;;
51006;SDS011;37034;47.886;-3.904;2022-10-16T13:33:17;15.20;;;2.10;;
51006;SDS011;37034;47.886;-3.904;2022-10-16T13:36:05;12.05;;;1.70;;
51006;SDS011;37034;47.886;-3.904;2022-10-16T13:38:32;12.90;;;1.02;;
51006;SDS011;37034;47.886;-3.904;2022-10-16T13:46:02;11.65;;;1.30;;
51006;SDS011;37034;47.886;-3.904;2022-10-16T13:48:35;16.02;;;2.03;;
51006;SDS011;37034;47.886;-3.904;2022-10-16T13:51:14;12.10;;;1.50;;
51006;SDS011;37034;47.886;-3.904;2022-10-16T13:53:42;13.00;;;2.33;;
51006;SDS011;37034;47.886;-3.904;2022-10-16T13:56:13;15.25;;;2.30;;
51006;SDS011;37034;47.886;-3.904;2022-10-16T13:58:40;14.80;;;1.70;;
51006;SDS011;37034;47.886;-3.904;2022-10-16T14:01:16;14.13;;;1.50;;
51006;SDS011;37034;47.886;-3.904;2022-10-16T14:03:45;13.90;;;2.22;;
51006;SDS011;37034;47.886;-3.904;2022-10-16T14:06:13;17.45;;;2.15;;
51006;SDS011;37034;47.886;-3.904;2022-10-16T14:08:50;13.32;;;1.65;;
51006;SDS011;37034;47.886;-3.904;2022-10-16T14:11:26;16.65;;;2.17;;
51006;SDS011;37034;47.886;-3.904;2022-10-16T14:13:51;16.05;;;2.33;;
51006;SDS011;37034;47.886;-3.904;2022-10-16T14:16:19;12.75;;;1.80;;
51006;SDS011;37034;47.886;-3.904;2022-10-16T14:18:55;21.33;;;2.08;;
51006;SDS011;37034;47.886;-3.904;2022-10-16T14:21:21;13.77;;;2.15;;
51006;SDS011;37034;47.886;-3.904;2022-10-16T14:23:47;16.08;;;1.98;;
51006;SDS011;37034;47.886;-3.904;2022-10-16T14:26:14;20.77;;;1.93;;
51006;SDS011;37034;47.886;-3.904;2022-10-16T14:28:41;17.40;;;1.98;;
51006;SDS011;37034;47.886;-3.904;2022-10-16T14:33:49;16.10;;;2.00;;
51006;SDS011;37034;47.886;-3.904;2022-10-16T14:36:15;10.70;;;1.57;;
51006;SDS011;37034;47.886;-3.904;2022-10-16T14:39:05;14.23;;;2.00;;
51006;SDS011;37034;47.886;-3.904;2022-10-16T14:41:45;12.70;;;1.60;;
51006;SDS011;37034;47.886;-3.904;2022-10-16T14:44:13;20.52;;;2.05;;
51006;SDS011;37034;47.886;-3.904;2022-10-16T14:46:40;15.10;;;1.77;;
51006;SDS011;37034;47.886;-3.904;2022-10-16T14:51:39;16.67;;;2.25;;
51006;SDS011;37034;47.886;-3.904;2022-10-16T14:54:07;14.90;;;2.15;;
51006;SDS011;37034;47.886;-3.904;2022-10-16T14:56:36;13.82;;;2.03;;
51006;SDS011;37034;47.886;-3.904;2022-10-16T14:59:08;15.00;;;2.03;;
51006;SDS011;37034;47.886;-3.904;2022-10-16T15:01:47;15.98;;;1.83;;
51006;SDS011;37034;47.886;-3.904;2022-10-16T15:04:13;19.20;;;2.42;;
51006;SDS011;37034;47.886;-3.904;2022-10-16T15:09:04;17.58;;;1.98;;
51006;SDS011;37034;47.886;-3.904;2022-10-16T15:11:31;16.63;;;1.90;;
51006;SDS011;37034;47.886;-3.904;2022-10-16T15:13:57;17.73;;;2.58;;
51006;SDS011;37034;47.886;-3.904;2022-10-16T15:16:23;28.48;;;4.10;;
51006;SDS011;37034;47.886;-3.904;2022-10-16T15:18:49;21.60;;;3.08;;
51006;SDS011;37034;47.886;-3.904;2022-10-16T15:21:25;22.88;;;2.63;;
51006;SDS011;37034;47.886;-3.904;2022-10-16T15:23:55;27.92;;;2.80;;
51006;SDS011;37034;47.886;-3.904;2022-10-16T15:26:39;21.67;;;2.72;;
51006;SDS011;37034;47.886;-3.904;2022-10-16T15:29:08;21.05;;;2.65;;
51006;SDS011;37034;47.886;-3.904;2022-10-16T15:31:37;20.00;;;2.55;;
51006;SDS011;37034;47.886;-3.904;2022-10-16T15:34:08;16.20;;;2.17;;
51006;SDS011;37034;47.886;-3.904;2022-10-16T15:37:02;19.98;;;3.20;;
51006;SDS011;37034;47.886;-3.904;2022-10-16T15:39:31;16.92;;;2.58;;
51006;SDS011;37034;47.886;-3.904;2022-10-16T15:41:56;21.08;;;2.20;;
51006;SDS011;37034;47.886;-3.904;2022-10-16T15:44:22;22.60;;;2.60;;
51006;SDS011;37034;47.886;-3.904;2022-10-16T15:46:50;17.42;;;2.08;;
51006;SDS011;37034;47.886;-3.904;2022-10-16T15:49:19;21.30;;;3.03;;
51006;SDS011;37034;47.886;-3.904;2022-10-16T15:51:45;22.42;;;2.97;;
51006;SDS011;37034;47.886;-3.904;2022-10-16T15:54:11;15.73;;;2.35;;
51006;SDS011;37034;47.886;-3.904;2022-10-16T15:56:36;21.77;;;2.45;;
51006;SDS011;37034;47.886;-3.904;2022-10-16T15:59:02;20.00;;;2.50;;
51006;SDS011;37034;47.886;-3.904;2022-10-16T16:03:57;19.05;;;3.30;;
51006;SDS011;37034;47.886;-3.904;2022-10-16T16:06:22;25.13;;;3.13;;
51006;SDS011;37034;47.886;-3.904;2022-10-16T16:08:51;17.10;;;2.15;;
51006;SDS011;37034;47.886;-3.904;2022-10-16T16:11:17;21.05;;;3.22;;
51006;SDS011;37034;47.886;-3.904;2022-10-16T16:13:44;19.80;;;2.28;;
51006;SDS011;37034;47.886;-3.904;2022-10-16T16:16:11;19.40;;;2.22;;
51006;SDS011;37034;47.886;-3.904;2022-10-16T16:18:45;21.17;;;2.83;;
51006;SDS011;37034;47.886;-3.904;2022-10-16T16:21:11;23.52;;;3.70;;
51006;SDS011;37034;47.886;-3.904;2022-10-16T16:23:37;21.27;;;2.72;;
51006;SDS011;37034;47.886;-3.904;2022-10-16T16:28:34;22.95;;;3.08;;
51006;SDS011;37034;47.886;-3.904;2022-10-16T16:31:01;18.70;;;3.20;;
51006;SDS011;37034;47.886;-3.904;2022-10-16T16:33:27;26.80;;;3.60;;
51006;SDS011;37034;47.886;-3.904;2022-10-16T16:35:56;27.80;;;3.45;;
51006;SDS011;37034;47.886;-3.904;2022-10-16T16:38:28;21.67;;;2.67;;
51006;SDS011;37034;47.886;-3.904;2022-10-16T16:40:54;22.85;;;3.30;;
51006;SDS011;37034;47.886;-3.904;2022-10-16T16:43:24;27.27;;;3.40;;
51006;SDS011;37034;47.886;-3.904;2022-10-16T16:45:51;21.30;;;3.75;;
51006;SDS011;37034;47.886;-3.904;2022-10-16T16:48:18;26.15;;;3.28;;
51006;SDS011;37034;47.886;-3.904;2022-10-16T16:50:43;27.70;;;4.20;;
51006;SDS011;37034;47.886;-3.904;2022-10-16T16:53:09;23.08;;;3.92;;
51006;SDS011;37034;47.886;-3.904;2022-10-16T16:55:35;28.48;;;4.30;;
51006;SDS011;37034;47.886;-3.904;2022-10-16T16:58:00;23.70;;;3.42;;
51006;SDS011;37034;47.886;-3.904;2022-10-16T17:00:27;24.42;;;3.47;;
51006;SDS011;37034;47.886;-3.904;2022-10-16T17:02:53;26.45;;;4.07;;
51006;SDS011;37034;47.886;-3.904;2022-10-16T17:05:19;24.17;;;3.30;;
51006;SDS011;37034;47.886;-3.904;2022-10-16T17:07:45;29.65;;;4.00;;
51006;SDS011;37034;47.886;-3.904;2022-10-16T17:10:10;21.58;;;3.65;;
51006;SDS011;37034;47.886;-3.904;2022-10-16T17:12:36;29.40;;;3.87;;
51006;SDS011;37034;47.886;-3.904;2022-10-16T17:15:02;28.65;;;4.03;;
51006;SDS011;37034;47.886;-3.904;2022-10-16T17:17:28;26.25;;;4.00;;
51006;SDS011;37034;47.886;-3.904;2022-10-16T17:19:54;25.08;;;3.67;;